PWSweather.com
Personal Weather Stations
Station Observations
ITROMSHA6
HarstadNO 9407

HarstadNO 9407

Lat: 68.7814767, Lon: 16.5297091

Elevation: 145

Station Type: Davis Vantage Pro2

High Low Average
Temperature 28.4°F-2.0°C 14.6°F-9.7°C 21.7°F-5.7°C
Dew Point 18.7°F-7.4°C 8.6°F-13.0°C 14.6°F-9.7°C
Winds 14.0 mph 22.5 kmh Calm Calm 5.0 mph SW8.0 kmh SW
Wind Gusts 18.0 mph29.0 kmh -- 2.0 mph3.2 kmh
Humidity 88% 62% 74%
Pressure 30.16 in1021.3 mb 29.89 in1012.2 mb -
Precipitation 0.00 in0.0 mm - -
Hour Temp Dew Point Humidity Winds Wind Gusts Pressure Precip Precip Rate Daily Precip Total
12:00 AM 15.0°F-9.4°C 9.1°F-12.7°C 77% 7.0 mph WSW11.3 kmh WSW -- 30.16 in1021.3 mb 0.00 in0.0 mm 0.00 in0.0 mm 0.00 in0.0 mm
12:05 AM 14.6°F-9.7°C 8.6°F-13.0°C 77% 7.0 mph WSW11.3 kmh WSW -- 30.15 in1021.0 mb 0.00 in0.0 mm 0.00 in0.0 mm 0.00 in0.0 mm
12:10 AM 14.7°F-9.6°C 9.1°F-12.7°C 78% 4.0 mph WSW6.4 kmh WSW 9.0 mph14.5 kmh 30.15 in1021.0 mb 0.00 in0.0 mm 0.00 in0.0 mm 0.00 in0.0 mm
12:15 AM 15.0°F-9.4°C 9.5°F-12.5°C 78% 3.0 mph W4.8 kmh W -- 30.15 in1021.0 mb 0.00 in0.0 mm 0.00 in0.0 mm 0.00 in0.0 mm
12:20 AM 15.4°F-9.2°C 9.5°F-12.5°C 77% 6.0 mph WSW9.7 kmh WSW -- 30.15 in1021.0 mb 0.00 in0.0 mm 0.00 in0.0 mm 0.00 in0.0 mm
12:25 AM 14.8°F-9.6°C 9.1°F-12.7°C 78% 7.0 mph WSW11.3 kmh WSW -- 30.15 in1021.0 mb 0.00 in0.0 mm 0.00 in0.0 mm 0.00 in0.0 mm
12:30 AM 14.9°F-9.5°C 9.5°F-12.5°C 79% 5.0 mph WSW8.0 kmh WSW -- 30.15 in1021.0 mb 0.00 in0.0 mm 0.00 in0.0 mm 0.00 in0.0 mm
12:35 AM 16.1°F-8.8°C 10.2°F-12.1°C 77% 6.0 mph WSW9.7 kmh WSW 9.0 mph14.5 kmh 30.14 in1020.7 mb 0.00 in0.0 mm 0.00 in0.0 mm 0.00 in0.0 mm
12:40 AM 16.0°F-8.9°C 9.5°F-12.5°C 75% 6.0 mph WSW9.7 kmh WSW -- 30.14 in1020.7 mb 0.00 in0.0 mm 0.00 in0.0 mm 0.00 in0.0 mm
12:45 AM 15.9°F-8.9°C 9.9°F-12.3°C 76% 7.0 mph SW11.3 kmh SW -- 30.14 in1020.7 mb 0.00 in0.0 mm 0.00 in0.0 mm 0.00 in0.0 mm
12:50 AM 15.6°F-9.1°C 9.1°F-12.7°C 75% 5.0 mph WSW8.0 kmh WSW -- 30.14 in1020.7 mb 0.00 in0.0 mm 0.00 in0.0 mm 0.00 in0.0 mm
12:55 AM 15.5°F-9.2°C 9.3°F-12.6°C 76% 6.0 mph WSW9.7 kmh WSW -- 30.14 in1020.7 mb 0.00 in0.0 mm 0.00 in0.0 mm 0.00 in0.0 mm
01:00 AM 15.5°F-9.2°C 9.0°F-12.8°C 75% 8.0 mph WSW12.9 kmh WSW 8.0 mph12.9 kmh 30.14 in1020.7 mb 0.00 in0.0 mm 0.00 in0.0 mm 0.00 in0.0 mm
01:05 AM 15.1°F-9.4°C 9.0°F-12.8°C 76% 8.0 mph WSW12.9 kmh WSW -- 30.14 in1020.7 mb 0.00 in0.0 mm 0.00 in0.0 mm 0.00 in0.0 mm
01:10 AM 15.8°F-9.0°C 9.9°F-12.3°C 77% 6.0 mph WSW9.7 kmh WSW -- 30.14 in1020.7 mb 0.00 in0.0 mm 0.00 in0.0 mm 0.00 in0.0 mm
01:15 AM 15.9°F-8.9°C 9.9°F-12.3°C 76% 5.0 mph WSW8.0 kmh WSW -- 30.14 in1020.7 mb 0.00 in0.0 mm 0.00 in0.0 mm 0.00 in0.0 mm
01:20 AM 15.8°F-9.0°C 9.9°F-12.3°C 77% 4.0 mph WSW6.4 kmh WSW -- 30.14 in1020.7 mb 0.00 in0.0 mm 0.00 in0.0 mm 0.00 in0.0 mm
01:25 AM 15.9°F-8.9°C 10.0°F-12.2°C 77% 4.0 mph WSW6.4 kmh WSW 6.0 mph9.7 kmh 30.14 in1020.7 mb 0.00 in0.0 mm 0.00 in0.0 mm 0.00 in0.0 mm
01:30 AM 15.9°F-8.9°C 10.0°F-12.2°C 77% 5.0 mph WSW8.0 kmh WSW -- 30.14 in1020.7 mb 0.00 in0.0 mm 0.00 in0.0 mm 0.00 in0.0 mm
01:35 AM 16.3°F-8.7°C 10.8°F-11.8°C 78% 6.0 mph WSW9.7 kmh WSW -- 30.14 in1020.7 mb 0.00 in0.0 mm 0.00 in0.0 mm 0.00 in0.0 mm
01:40 AM 16.4°F-8.7°C 10.9°F-11.7°C 79% 5.0 mph WSW8.0 kmh WSW -- 30.14 in1020.7 mb 0.00 in0.0 mm 0.00 in0.0 mm 0.00 in0.0 mm
01:45 AM 16.4°F-8.7°C 10.8°F-11.8°C 78% 6.0 mph W9.7 kmh W -- 30.14 in1020.7 mb 0.00 in0.0 mm 0.00 in0.0 mm 0.00 in0.0 mm
01:50 AM 15.8°F-9.0°C 10.2°F-12.1°C 78% 7.0 mph WSW11.3 kmh WSW 11.0 mph17.7 kmh 30.13 in1020.3 mb 0.00 in0.0 mm 0.00 in0.0 mm 0.00 in0.0 mm
01:55 AM 15.7°F-9.1°C 10.2°F-12.1°C 79% 4.0 mph WSW6.4 kmh WSW -- 30.13 in1020.3 mb 0.00 in0.0 mm 0.00 in0.0 mm 0.00 in0.0 mm
02:00 AM 16.3°F-8.7°C 11.3°F-11.5°C 80% 4.0 mph WSW6.4 kmh WSW -- 30.13 in1020.3 mb 0.00 in0.0 mm 0.00 in0.0 mm 0.00 in0.0 mm
02:05 AM 16.6°F-8.6°C 11.1°F-11.6°C 79% 6.0 mph WSW9.7 kmh WSW -- 30.13 in1020.3 mb 0.00 in0.0 mm 0.00 in0.0 mm 0.00 in0.0 mm
02:10 AM 16.4°F-8.7°C 10.4°F-12.0°C 77% 7.0 mph WSW11.3 kmh WSW -- 30.13 in1020.3 mb 0.00 in0.0 mm 0.00 in0.0 mm 0.00 in0.0 mm
02:15 AM 16.2°F-8.8°C 10.6°F-11.9°C 78% 5.0 mph WSW8.0 kmh WSW 8.0 mph12.9 kmh 30.12 in1020.0 mb 0.00 in0.0 mm 0.00 in0.0 mm 0.00 in0.0 mm
02:20 AM 15.7°F-9.1°C 10.0°F-12.2°C 78% 3.0 mph WSW4.8 kmh WSW -- 30.12 in1020.0 mb 0.00 in0.0 mm 0.00 in0.0 mm 0.00 in0.0 mm
02:25 AM 15.5°F-9.2°C 10.0°F-12.2°C 79% 5.0 mph WSW8.0 kmh WSW -- 30.12 in1020.0 mb 0.00 in0.0 mm 0.00 in0.0 mm 0.00 in0.0 mm
02:30 AM 15.1°F-9.4°C 9.7°F-12.4°C 79% 3.0 mph WSW4.8 kmh WSW -- 30.12 in1020.0 mb 0.00 in0.0 mm 0.00 in0.0 mm 0.00 in0.0 mm
02:35 AM 15.3°F-9.3°C 10.2°F-12.1°C 80% 5.0 mph WSW8.0 kmh WSW -- 30.12 in1020.0 mb 0.00 in0.0 mm 0.00 in0.0 mm 0.00 in0.0 mm
02:40 AM 15.4°F-9.2°C 10.4°F-12.0°C 80% 7.0 mph WSW11.3 kmh WSW 6.0 mph9.7 kmh 30.12 in1020.0 mb 0.00 in0.0 mm 0.00 in0.0 mm 0.00 in0.0 mm
02:45 AM 15.5°F-9.2°C 10.4°F-12.0°C 80% 5.0 mph WSW8.0 kmh WSW -- 30.12 in1020.0 mb 0.00 in0.0 mm 0.00 in0.0 mm 0.00 in0.0 mm
02:50 AM 15.7°F-9.1°C 10.8°F-11.8°C 81% 5.0 mph WSW8.0 kmh WSW -- 30.12 in1020.0 mb 0.00 in0.0 mm 0.00 in0.0 mm 0.00 in0.0 mm
02:55 AM 15.7°F-9.1°C 10.8°F-11.8°C 81% 5.0 mph WSW8.0 kmh WSW -- 30.12 in1020.0 mb 0.00 in0.0 mm 0.00 in0.0 mm 0.00 in0.0 mm
03:00 AM 15.7°F-9.1°C 10.6°F-11.9°C 80% 7.0 mph WSW11.3 kmh WSW -- 30.12 in1020.0 mb 0.00 in0.0 mm 0.00 in0.0 mm 0.00 in0.0 mm
03:05 AM 15.4°F-9.2°C 10.4°F-12.0°C 80% 4.0 mph WSW6.4 kmh WSW 8.0 mph12.9 kmh 30.12 in1020.0 mb 0.00 in0.0 mm 0.00 in0.0 mm 0.00 in0.0 mm
03:10 AM 16.4°F-8.7°C 11.8°F-11.2°C 82% 4.0 mph WSW6.4 kmh WSW -- 30.12 in1020.0 mb 0.00 in0.0 mm 0.00 in0.0 mm 0.00 in0.0 mm
03:15 AM 16.2°F-8.8°C 11.3°F-11.5°C 81% 7.0 mph WSW11.3 kmh WSW -- 30.12 in1020.0 mb 0.00 in0.0 mm 0.00 in0.0 mm 0.00 in0.0 mm
03:20 AM 15.8°F-9.0°C 10.9°F-11.7°C 81% 5.0 mph WSW8.0 kmh WSW -- 30.12 in1020.0 mb 0.00 in0.0 mm 0.00 in0.0 mm 0.00 in0.0 mm
03:25 AM 15.6°F-9.1°C 10.8°F-11.8°C 81% 5.0 mph WSW8.0 kmh WSW -- 30.12 in1020.0 mb 0.00 in0.0 mm 0.00 in0.0 mm 0.00 in0.0 mm
03:30 AM 15.2°F-9.3°C 10.8°F-11.8°C 82% 7.0 mph WSW11.3 kmh WSW 9.0 mph14.5 kmh 30.12 in1020.0 mb 0.00 in0.0 mm 0.00 in0.0 mm 0.00 in0.0 mm
03:35 AM 15.2°F-9.3°C 11.1°F-11.6°C 83% 7.0 mph WSW11.3 kmh WSW -- 30.12 in1020.0 mb 0.00 in0.0 mm 0.00 in0.0 mm 0.00 in0.0 mm
03:40 AM 15.3°F-9.3°C 11.1°F-11.6°C 83% 7.0 mph W11.3 kmh W -- 30.12 in1020.0 mb 0.00 in0.0 mm 0.00 in0.0 mm 0.00 in0.0 mm
03:45 AM 15.0°F-9.4°C 10.9°F-11.7°C 83% 6.0 mph WSW9.7 kmh WSW -- 30.12 in1020.0 mb 0.00 in0.0 mm 0.00 in0.0 mm 0.00 in0.0 mm
03:50 AM 14.8°F-9.6°C 10.8°F-11.8°C 84% 6.0 mph WSW9.7 kmh WSW -- 30.12 in1020.0 mb 0.00 in0.0 mm 0.00 in0.0 mm 0.00 in0.0 mm
03:55 AM 15.0°F-9.4°C 11.5°F-11.4°C 85% 9.0 mph WSW14.5 kmh WSW 9.0 mph14.5 kmh 30.11 in1019.6 mb 0.00 in0.0 mm 0.00 in0.0 mm 0.00 in0.0 mm
04:00 AM 15.4°F-9.2°C 12.0°F-11.1°C 86% 7.0 mph WSW11.3 kmh WSW -- 30.11 in1019.6 mb 0.00 in0.0 mm 0.00 in0.0 mm 0.00 in0.0 mm
04:05 AM 15.5°F-9.2°C 11.8°F-11.2°C 85% 7.0 mph WSW11.3 kmh WSW -- 30.11 in1019.6 mb 0.00 in0.0 mm 0.00 in0.0 mm 0.00 in0.0 mm
04:10 AM 15.5°F-9.2°C 11.8°F-11.2°C 85% 8.0 mph WSW12.9 kmh WSW -- 30.11 in1019.6 mb 0.00 in0.0 mm 0.00 in0.0 mm 0.00 in0.0 mm
04:15 AM 15.2°F-9.3°C 11.7°F-11.3°C 85% 7.0 mph WSW11.3 kmh WSW -- 30.11 in1019.6 mb 0.00 in0.0 mm 0.00 in0.0 mm 0.00 in0.0 mm
04:20 AM 15.7°F-9.1°C 12.2°F-11.0°C 86% 6.0 mph WSW9.7 kmh WSW 8.0 mph12.9 kmh 30.11 in1019.6 mb 0.00 in0.0 mm 0.00 in0.0 mm 0.00 in0.0 mm
04:25 AM 15.7°F-9.1°C 11.8°F-11.2°C 85% 5.0 mph WSW8.0 kmh WSW -- 30.11 in1019.6 mb 0.00 in0.0 mm 0.00 in0.0 mm 0.00 in0.0 mm
04:30 AM 15.7°F-9.1°C 11.8°F-11.2°C 85% 6.0 mph WSW9.7 kmh WSW -- 30.11 in1019.6 mb 0.00 in0.0 mm 0.00 in0.0 mm 0.00 in0.0 mm
04:35 AM 15.4°F-9.2°C 11.8°F-11.2°C 85% 4.0 mph WSW6.4 kmh WSW -- 30.11 in1019.6 mb 0.00 in0.0 mm 0.00 in0.0 mm 0.00 in0.0 mm
04:40 AM 16.0°F-8.9°C 12.6°F-10.8°C 86% 8.0 mph WSW12.9 kmh WSW -- 30.11 in1019.6 mb 0.00 in0.0 mm 0.00 in0.0 mm 0.00 in0.0 mm
04:45 AM 16.5°F-8.6°C 12.7°F-10.7°C 85% 5.0 mph WSW8.0 kmh WSW 9.0 mph14.5 kmh 30.11 in1019.6 mb 0.00 in0.0 mm 0.00 in0.0 mm 0.00 in0.0 mm
04:50 AM 16.0°F-8.9°C 12.2°F-11.0°C 85% 5.0 mph WSW8.0 kmh WSW -- 30.11 in1019.6 mb 0.00 in0.0 mm 0.00 in0.0 mm 0.00 in0.0 mm
04:55 AM 15.9°F-8.9°C 12.2°F-11.0°C 85% 5.0 mph WSW8.0 kmh WSW -- 30.11 in1019.6 mb 0.00 in0.0 mm 0.00 in0.0 mm 0.00 in0.0 mm
05:00 AM 15.2°F-9.3°C 11.3°F-11.5°C 84% 6.0 mph WSW9.7 kmh WSW -- 30.11 in1019.6 mb 0.00 in0.0 mm 0.00 in0.0 mm 0.00 in0.0 mm
05:05 AM 14.8°F-9.6°C 11.1°F-11.6°C 85% 5.0 mph WSW8.0 kmh WSW -- 30.10 in1019.3 mb 0.00 in0.0 mm 0.00 in0.0 mm 0.00 in0.0 mm
05:10 AM 15.5°F-9.2°C 12.2°F-11.0°C 87% 6.0 mph WSW9.7 kmh WSW 8.0 mph12.9 kmh 30.10 in1019.3 mb 0.00 in0.0 mm 0.00 in0.0 mm 0.00 in0.0 mm
05:15 AM 15.9°F-8.9°C 12.6°F-10.8°C 86% 6.0 mph W9.7 kmh W -- 30.10 in1019.3 mb 0.00 in0.0 mm 0.00 in0.0 mm 0.00 in0.0 mm
05:20 AM 16.1°F-8.8°C 12.7°F-10.7°C 86% 5.0 mph WSW8.0 kmh WSW -- 30.10 in1019.3 mb 0.00 in0.0 mm 0.00 in0.0 mm 0.00 in0.0 mm
05:25 AM 15.9°F-8.9°C 12.6°F-10.8°C 86% 9.0 mph WSW14.5 kmh WSW -- 30.10 in1019.3 mb 0.00 in0.0 mm 0.00 in0.0 mm 0.00 in0.0 mm
05:30 AM 16.0°F-8.9°C 12.7°F-10.7°C 87% 7.0 mph WSW11.3 kmh WSW -- 30.10 in1019.3 mb 0.00 in0.0 mm 0.00 in0.0 mm 0.00 in0.0 mm
05:35 AM 15.8°F-9.0°C 12.4°F-10.9°C 86% 8.0 mph WSW12.9 kmh WSW 10.0 mph16.1 kmh 30.10 in1019.3 mb 0.00 in0.0 mm 0.00 in0.0 mm 0.00 in0.0 mm
05:40 AM 15.1°F-9.4°C 11.7°F-11.3°C 86% 7.0 mph WSW11.3 kmh WSW -- 30.10 in1019.3 mb 0.00 in0.0 mm 0.00 in0.0 mm 0.00 in0.0 mm
05:45 AM 16.0°F-8.9°C 13.1°F-10.5°C 88% 7.0 mph W11.3 kmh W -- 30.10 in1019.3 mb 0.00 in0.0 mm 0.00 in0.0 mm 0.00 in0.0 mm
05:50 AM 15.8°F-9.0°C 12.4°F-10.9°C 86% 6.0 mph W9.7 kmh W -- 30.10 in1019.3 mb 0.00 in0.0 mm 0.00 in0.0 mm 0.00 in0.0 mm
05:55 AM 15.7°F-9.1°C 12.2°F-11.0°C 86% 7.0 mph WSW11.3 kmh WSW -- 30.10 in1019.3 mb 0.00 in0.0 mm 0.00 in0.0 mm 0.00 in0.0 mm
06:00 AM 15.7°F-9.1°C 12.4°F-10.9°C 87% 7.0 mph WSW11.3 kmh WSW 9.0 mph14.5 kmh 30.09 in1019.0 mb 0.00 in0.0 mm 0.00 in0.0 mm 0.00 in0.0 mm
06:05 AM 15.5°F-9.2°C 12.2°F-11.0°C 87% 8.0 mph WSW12.9 kmh WSW -- 30.09 in1019.0 mb 0.00 in0.0 mm 0.00 in0.0 mm 0.00 in0.0 mm
06:10 AM 14.9°F-9.5°C 11.5°F-11.4°C 86% 8.0 mph WSW12.9 kmh WSW -- 30.09 in1019.0 mb 0.00 in0.0 mm 0.00 in0.0 mm 0.00 in0.0 mm
06:15 AM 15.5°F-9.2°C 12.6°F-10.8°C 88% 6.0 mph WSW9.7 kmh WSW -- 30.09 in1019.0 mb 0.00 in0.0 mm 0.00 in0.0 mm 0.00 in0.0 mm
06:20 AM 16.0°F-8.9°C 13.1°F-10.5°C 88% 7.0 mph W11.3 kmh W -- 30.09 in1019.0 mb 0.00 in0.0 mm 0.00 in0.0 mm 0.00 in0.0 mm
06:25 AM 16.5°F-8.6°C 13.6°F-10.2°C 88% 7.0 mph WSW11.3 kmh WSW 9.0 mph14.5 kmh 30.08 in1018.6 mb 0.00 in0.0 mm 0.00 in0.0 mm 0.00 in0.0 mm
06:30 AM 17.0°F-8.3°C 14.2°F-9.9°C 88% 5.0 mph WSW8.0 kmh WSW -- 30.08 in1018.6 mb 0.00 in0.0 mm 0.00 in0.0 mm 0.00 in0.0 mm
06:35 AM 17.2°F-8.2°C 14.0°F-10.0°C 87% 7.0 mph WSW11.3 kmh WSW -- 30.08 in1018.6 mb 0.00 in0.0 mm 0.00 in0.0 mm 0.00 in0.0 mm
06:40 AM 16.9°F-8.4°C 13.5°F-10.3°C 86% 8.0 mph WSW12.9 kmh WSW -- 30.08 in1018.6 mb 0.00 in0.0 mm 0.00 in0.0 mm 0.00 in0.0 mm
06:45 AM 16.8°F-8.4°C 13.5°F-10.3°C 86% 7.0 mph WSW11.3 kmh WSW -- 30.08 in1018.6 mb 0.00 in0.0 mm 0.00 in0.0 mm 0.00 in0.0 mm
06:50 AM 16.5°F-8.6°C 13.1°F-10.5°C 86% 6.0 mph WSW9.7 kmh WSW 9.0 mph14.5 kmh 30.08 in1018.6 mb 0.00 in0.0 mm 0.00 in0.0 mm 0.00 in0.0 mm
06:55 AM 16.3°F-8.7°C 12.9°F-10.6°C 86% 8.0 mph WSW12.9 kmh WSW -- 30.08 in1018.6 mb 0.00 in0.0 mm 0.00 in0.0 mm 0.00 in0.0 mm
07:00 AM 15.7°F-9.1°C 12.2°F-11.0°C 86% 7.0 mph WSW11.3 kmh WSW -- 30.08 in1018.6 mb 0.00 in0.0 mm 0.00 in0.0 mm 0.00 in0.0 mm
07:05 AM 16.0°F-8.9°C 12.7°F-10.7°C 87% 5.0 mph WSW8.0 kmh WSW -- 30.08 in1018.6 mb 0.00 in0.0 mm 0.00 in0.0 mm 0.00 in0.0 mm
07:10 AM 17.0°F-8.3°C 13.8°F-10.1°C 87% 7.0 mph WSW11.3 kmh WSW -- 30.08 in1018.6 mb 0.00 in0.0 mm 0.00 in0.0 mm 0.00 in0.0 mm
07:15 AM 17.2°F-8.2°C 14.0°F-10.0°C 87% 6.0 mph WSW9.7 kmh WSW 8.0 mph12.9 kmh 30.08 in1018.6 mb 0.00 in0.0 mm 0.00 in0.0 mm 0.00 in0.0 mm
07:20 AM 16.6°F-8.6°C 13.1°F-10.5°C 86% 7.0 mph WSW11.3 kmh WSW -- 30.08 in1018.6 mb 0.00 in0.0 mm 0.00 in0.0 mm 0.00 in0.0 mm
07:25 AM 16.0°F-8.9°C 12.6°F-10.8°C 86% 6.0 mph WSW9.7 kmh WSW -- 30.08 in1018.6 mb 0.00 in0.0 mm 0.00 in0.0 mm 0.00 in0.0 mm
07:30 AM 15.4°F-9.2°C 12.0°F-11.1°C 86% 6.0 mph SW9.7 kmh SW -- 30.08 in1018.6 mb 0.00 in0.0 mm 0.00 in0.0 mm 0.00 in0.0 mm
07:35 AM 15.5°F-9.2°C 12.2°F-11.0°C 87% 7.0 mph WSW11.3 kmh WSW -- 30.08 in1018.6 mb 0.00 in0.0 mm 0.00 in0.0 mm 0.00 in0.0 mm
07:40 AM 15.9°F-8.9°C 12.7°F-10.7°C 87% 7.0 mph WSW11.3 kmh WSW 9.0 mph14.5 kmh 30.08 in1018.6 mb 0.00 in0.0 mm 0.00 in0.0 mm 0.00 in0.0 mm
07:45 AM 16.1°F-8.8°C 12.9°F-10.6°C 87% 7.0 mph WSW11.3 kmh WSW -- 30.08 in1018.6 mb 0.00 in0.0 mm 0.00 in0.0 mm 0.00 in0.0 mm
07:50 AM 16.4°F-8.7°C 13.1°F-10.5°C 87% 7.0 mph WSW11.3 kmh WSW -- 30.08 in1018.6 mb 0.00 in0.0 mm 0.00 in0.0 mm 0.00 in0.0 mm
07:55 AM 16.3°F-8.7°C 12.9°F-10.6°C 86% 9.0 mph WSW14.5 kmh WSW -- 30.08 in1018.6 mb 0.00 in0.0 mm 0.00 in0.0 mm 0.00 in0.0 mm
08:00 AM 16.4°F-8.7°C 13.1°F-10.5°C 87% 8.0 mph WSW12.9 kmh WSW -- 30.08 in1018.6 mb 0.00 in0.0 mm 0.00 in0.0 mm 0.00 in0.0 mm
08:05 AM 17.1°F-8.3°C 13.8°F-10.1°C 87% 8.0 mph WSW12.9 kmh WSW 11.0 mph17.7 kmh 30.08 in1018.6 mb 0.00 in0.0 mm 0.00 in0.0 mm 0.00 in0.0 mm
08:10 AM 17.3°F-8.2°C 13.8°F-10.1°C 86% 7.0 mph W11.3 kmh W -- 30.07 in1018.3 mb 0.00 in0.0 mm 0.00 in0.0 mm 0.00 in0.0 mm
08:15 AM 16.6°F-8.6°C 12.7°F-10.7°C 85% 7.0 mph WSW11.3 kmh WSW -- 30.07 in1018.3 mb 0.00 in0.0 mm 0.00 in0.0 mm 0.00 in0.0 mm
08:20 AM 16.5°F-8.6°C 13.1°F-10.5°C 86% 7.0 mph WSW11.3 kmh WSW -- 30.07 in1018.3 mb 0.00 in0.0 mm 0.00 in0.0 mm 0.00 in0.0 mm
08:25 AM 16.8°F-8.4°C 13.5°F-10.3°C 86% 8.0 mph WSW12.9 kmh WSW -- 30.07 in1018.3 mb 0.00 in0.0 mm 0.00 in0.0 mm 0.00 in0.0 mm
08:30 AM 16.5°F-8.6°C 12.7°F-10.7°C 85% 8.0 mph WSW12.9 kmh WSW 10.0 mph16.1 kmh 30.07 in1018.3 mb 0.00 in0.0 mm 0.00 in0.0 mm 0.00 in0.0 mm
08:35 AM 17.2°F-8.2°C 14.0°F-10.0°C 87% 8.0 mph W12.9 kmh W -- 30.07 in1018.3 mb 0.00 in0.0 mm 0.00 in0.0 mm 0.00 in0.0 mm
08:40 AM 18.5°F-7.5°C 15.1°F-9.4°C 86% 7.0 mph W11.3 kmh W -- 30.07 in1018.3 mb 0.00 in0.0 mm 0.00 in0.0 mm 0.00 in0.0 mm
08:45 AM 17.9°F-7.8°C 14.0°F-10.0°C 84% 8.0 mph WSW12.9 kmh WSW -- 30.07 in1018.3 mb 0.00 in0.0 mm 0.00 in0.0 mm 0.00 in0.0 mm
08:50 AM 17.5°F-8.1°C 13.6°F-10.2°C 85% 6.0 mph WSW9.7 kmh WSW -- 30.07 in1018.3 mb 0.00 in0.0 mm 0.00 in0.0 mm 0.00 in0.0 mm
08:55 AM 17.1°F-8.3°C 13.3°F-10.4°C 85% 7.0 mph WSW11.3 kmh WSW 8.0 mph12.9 kmh 30.07 in1018.3 mb 0.00 in0.0 mm 0.00 in0.0 mm 0.00 in0.0 mm
09:00 AM 16.8°F-8.4°C 13.1°F-10.5°C 85% 7.0 mph WSW11.3 kmh WSW -- 30.06 in1017.9 mb 0.00 in0.0 mm 0.00 in0.0 mm 0.00 in0.0 mm
09:05 AM 17.0°F-8.3°C 13.6°F-10.2°C 86% 7.0 mph WSW11.3 kmh WSW -- 30.06 in1017.9 mb 0.00 in0.0 mm 0.00 in0.0 mm 0.00 in0.0 mm
09:10 AM 17.6°F-8.0°C 14.4°F-9.8°C 87% 7.0 mph WSW11.3 kmh WSW -- 30.06 in1017.9 mb 0.00 in0.0 mm 0.00 in0.0 mm 0.00 in0.0 mm
09:15 AM 18.2°F-7.7°C 14.9°F-9.5°C 87% 7.0 mph WSW11.3 kmh WSW -- 30.06 in1017.9 mb 0.00 in0.0 mm 0.00 in0.0 mm 0.00 in0.0 mm
09:20 AM 17.8°F-7.9°C 14.0°F-10.0°C 85% 7.0 mph W11.3 kmh W 9.0 mph14.5 kmh 30.06 in1017.9 mb 0.00 in0.0 mm 0.00 in0.0 mm 0.00 in0.0 mm
09:25 AM 18.2°F-7.7°C 14.7°F-9.6°C 86% 6.0 mph WSW9.7 kmh WSW -- 30.06 in1017.9 mb 0.00 in0.0 mm 0.00 in0.0 mm 0.00 in0.0 mm
09:30 AM 19.3°F-7.1°C 15.4°F-9.2°C 85% 5.0 mph W8.0 kmh W -- 30.06 in1017.9 mb 0.00 in0.0 mm 0.00 in0.0 mm 0.00 in0.0 mm
09:35 AM 19.3°F-7.1°C 14.9°F-9.5°C 83% 2.0 mph WSW3.2 kmh WSW -- 30.06 in1017.9 mb 0.00 in0.0 mm 0.00 in0.0 mm 0.00 in0.0 mm
09:40 AM 19.8°F-6.8°C 15.3°F-9.3°C 82% 4.0 mph WSW6.4 kmh WSW -- 30.06 in1017.9 mb 0.00 in0.0 mm 0.00 in0.0 mm 0.00 in0.0 mm
09:45 AM 20.6°F-6.3°C 15.8°F-9.0°C 81% 4.0 mph SW6.4 kmh SW 6.0 mph9.7 kmh 30.06 in1017.9 mb 0.00 in0.0 mm 0.00 in0.0 mm 0.00 in0.0 mm
09:50 AM 20.8°F-6.2°C 15.4°F-9.2°C 79% 4.0 mph WSW6.4 kmh WSW -- 30.06 in1017.9 mb 0.00 in0.0 mm 0.00 in0.0 mm 0.00 in0.0 mm
09:55 AM 21.2°F-6.0°C 15.8°F-9.0°C 79% 4.0 mph SW6.4 kmh SW -- 30.06 in1017.9 mb 0.00 in0.0 mm 0.00 in0.0 mm 0.00 in0.0 mm
10:00 AM 21.6°F-5.8°C 16.2°F-8.8°C 79% 7.0 mph WSW11.3 kmh WSW -- 30.06 in1017.9 mb 0.00 in0.0 mm 0.00 in0.0 mm 0.00 in0.0 mm
10:05 AM 23.0°F-5.0°C 17.2°F-8.2°C 78% 7.0 mph WSW11.3 kmh WSW -- 30.05 in1017.6 mb 0.00 in0.0 mm 0.00 in0.0 mm 0.00 in0.0 mm
10:10 AM 24.5°F-4.2°C 18.3°F-7.6°C 77% 9.0 mph WSW14.5 kmh WSW 11.0 mph17.7 kmh 30.06 in1017.9 mb 0.00 in0.0 mm 0.00 in0.0 mm 0.00 in0.0 mm
10:15 AM 25.9°F-3.4°C 18.7°F-7.4°C 74% 3.0 mph SW4.8 kmh SW -- 30.06 in1017.9 mb 0.00 in0.0 mm 0.00 in0.0 mm 0.00 in0.0 mm
10:20 AM 25.6°F-3.6°C 18.1°F-7.7°C 73% 2.0 mph SSE3.2 kmh SSE -- 30.06 in1017.9 mb 0.00 in0.0 mm 0.00 in0.0 mm 0.00 in0.0 mm
10:25 AM 24.9°F-3.9°C 17.2°F-8.2°C 72% 3.0 mph SSW4.8 kmh SSW -- 30.05 in1017.6 mb 0.00 in0.0 mm 0.00 in0.0 mm 0.00 in0.0 mm
10:30 AM 25.6°F-3.6°C 18.1°F-7.7°C 73% 6.0 mph SSW9.7 kmh SSW -- 30.05 in1017.6 mb 0.00 in0.0 mm 0.00 in0.0 mm 0.00 in0.0 mm
10:35 AM 25.9°F-3.4°C 17.8°F-7.9°C 71% 4.0 mph SSE6.4 kmh SSE 9.0 mph14.5 kmh 30.05 in1017.6 mb 0.00 in0.0 mm 0.00 in0.0 mm 0.00 in0.0 mm
10:40 AM 26.0°F-3.3°C 18.0°F-7.8°C 71% Calm Calm -- 30.05 in1017.6 mb 0.00 in0.0 mm 0.00 in0.0 mm 0.00 in0.0 mm
10:45 AM 26.0°F-3.3°C 18.0°F-7.8°C 71% 4.0 mph SSE6.4 kmh SSE -- 30.05 in1017.6 mb 0.00 in0.0 mm 0.00 in0.0 mm 0.00 in0.0 mm
10:50 AM 25.6°F-3.6°C 17.4°F-8.1°C 71% 6.0 mph SW9.7 kmh SW -- 30.05 in1017.6 mb 0.00 in0.0 mm 0.00 in0.0 mm 0.00 in0.0 mm
10:55 AM 25.9°F-3.4°C 17.4°F-8.1°C 70% 4.0 mph WSW6.4 kmh WSW -- 30.05 in1017.6 mb 0.00 in0.0 mm 0.00 in0.0 mm 0.00 in0.0 mm
11:00 AM 25.5°F-3.6°C 17.1°F-8.3°C 70% Calm Calm 8.0 mph12.9 kmh 30.05 in1017.6 mb 0.00 in0.0 mm 0.00 in0.0 mm 0.00 in0.0 mm
11:05 AM 24.8°F-4.0°C 16.3°F-8.7°C 70% 5.0 mph S8.0 kmh S -- 30.04 in1017.3 mb 0.00 in0.0 mm 0.00 in0.0 mm 0.00 in0.0 mm
11:10 AM 22.5°F-5.3°C 14.9°F-9.5°C 72% 5.0 mph W8.0 kmh W -- 30.04 in1017.3 mb 0.00 in0.0 mm 0.00 in0.0 mm 0.00 in0.0 mm
11:15 AM 21.8°F-5.7°C 14.4°F-9.8°C 73% 7.0 mph WSW11.3 kmh WSW -- 30.04 in1017.3 mb 0.00 in0.0 mm 0.00 in0.0 mm 0.00 in0.0 mm
11:20 AM 22.4°F-5.3°C 15.8°F-9.0°C 75% 5.0 mph WSW8.0 kmh WSW -- 30.04 in1017.3 mb 0.00 in0.0 mm 0.00 in0.0 mm 0.00 in0.0 mm
11:25 AM 23.3°F-4.8°C 16.0°F-8.9°C 73% 6.0 mph WSW9.7 kmh WSW 9.0 mph14.5 kmh 30.04 in1017.3 mb 0.00 in0.0 mm 0.00 in0.0 mm 0.00 in0.0 mm
11:30 AM 23.0°F-5.0°C 15.3°F-9.3°C 72% 7.0 mph WSW11.3 kmh WSW -- 30.04 in1017.3 mb 0.00 in0.0 mm 0.00 in0.0 mm 0.00 in0.0 mm
11:35 AM 24.3°F-4.3°C 16.5°F-8.6°C 72% 1.0 mph SW1.6 kmh SW -- 30.04 in1017.3 mb 0.00 in0.0 mm 0.00 in0.0 mm 0.00 in0.0 mm
11:40 AM 25.6°F-3.6°C 16.7°F-8.5°C 69% 4.0 mph SW6.4 kmh SW -- 30.04 in1017.3 mb 0.00 in0.0 mm 0.00 in0.0 mm 0.00 in0.0 mm
11:45 AM 26.0°F-3.3°C 16.9°F-8.4°C 68% 4.0 mph WSW6.4 kmh WSW -- 30.04 in1017.3 mb 0.00 in0.0 mm 0.00 in0.0 mm 0.00 in0.0 mm
11:50 AM 24.7°F-4.1°C 15.3°F-9.3°C 67% 3.0 mph WSW4.8 kmh WSW 7.0 mph11.3 kmh 30.04 in1017.3 mb 0.00 in0.0 mm 0.00 in0.0 mm 0.00 in0.0 mm
11:55 AM 23.9°F-4.5°C 15.6°F-9.1°C 70% 2.0 mph SW3.2 kmh SW -- 30.04 in1017.3 mb 0.00 in0.0 mm 0.00 in0.0 mm 0.00 in0.0 mm
12:00 PM 24.5°F-4.2°C 16.2°F-8.8°C 70% 2.0 mph S3.2 kmh S -- 30.04 in1017.3 mb 0.00 in0.0 mm 0.00 in0.0 mm 0.00 in0.0 mm
12:05 PM 25.6°F-3.6°C 16.7°F-8.5°C 69% 5.0 mph WSW8.0 kmh WSW -- 30.03 in1016.9 mb 0.00 in0.0 mm 0.00 in0.0 mm 0.00 in0.0 mm
12:10 PM 26.4°F-3.1°C 17.1°F-8.3°C 67% 4.0 mph S6.4 kmh S -- 30.03 in1016.9 mb 0.00 in0.0 mm 0.00 in0.0 mm 0.00 in0.0 mm
12:15 PM 26.2°F-3.2°C 16.9°F-8.4°C 67% 2.0 mph NNW3.2 kmh NNW 7.0 mph11.3 kmh 30.03 in1016.9 mb 0.00 in0.0 mm 0.00 in0.0 mm 0.00 in0.0 mm
12:20 PM 27.4°F-2.6°C 17.1°F-8.3°C 65% 4.0 mph E6.4 kmh E -- 30.03 in1016.9 mb 0.00 in0.0 mm 0.00 in0.0 mm 0.00 in0.0 mm
12:25 PM 27.0°F-2.8°C 16.7°F-8.5°C 65% 3.0 mph ENE4.8 kmh ENE -- 30.03 in1016.9 mb 0.00 in0.0 mm 0.00 in0.0 mm 0.00 in0.0 mm
12:30 PM 27.8°F-2.3°C 16.9°F-8.4°C 63% 11.0 mph NE17.7 kmh NE -- 30.03 in1016.9 mb 0.00 in0.0 mm 0.00 in0.0 mm 0.00 in0.0 mm
12:35 PM 28.4°F-2.0°C 17.1°F-8.3°C 62% 6.0 mph ENE9.7 kmh ENE -- 30.03 in1016.9 mb 0.00 in0.0 mm 0.00 in0.0 mm 0.00 in0.0 mm
12:41 PM 28.3°F-2.1°C 17.6°F-8.0°C 64% 2.0 mph ENE3.2 kmh ENE 18.0 mph29.0 kmh 30.03 in1016.9 mb 0.00 in0.0 mm 0.00 in0.0 mm 0.00 in0.0 mm
12:45 PM 27.9°F-2.3°C 17.2°F-8.2°C 64% 3.0 mph NE4.8 kmh NE -- 30.03 in1016.9 mb 0.00 in0.0 mm 0.00 in0.0 mm 0.00 in0.0 mm
12:50 PM 27.1°F-2.7°C 16.9°F-8.4°C 65% 4.0 mph S6.4 kmh S -- 30.03 in1016.9 mb 0.00 in0.0 mm 0.00 in0.0 mm 0.00 in0.0 mm
12:55 PM 27.2°F-2.7°C 16.9°F-8.4°C 65% 2.0 mph ESE3.2 kmh ESE -- 30.02 in1016.6 mb 0.00 in0.0 mm 0.00 in0.0 mm 0.00 in0.0 mm
01:00 PM 27.1°F-2.7°C 17.2°F-8.2°C 66% 1.0 mph SE1.6 kmh SE -- 30.02 in1016.6 mb 0.00 in0.0 mm 0.00 in0.0 mm 0.00 in0.0 mm
01:05 PM 26.8°F-2.9°C 16.9°F-8.4°C 66% 8.0 mph S12.9 kmh S 11.0 mph17.7 kmh 30.02 in1016.6 mb 0.00 in0.0 mm 0.00 in0.0 mm 0.00 in0.0 mm
01:10 PM 27.0°F-2.8°C 16.7°F-8.5°C 65% 3.0 mph SSW4.8 kmh SSW -- 30.02 in1016.6 mb 0.00 in0.0 mm 0.00 in0.0 mm 0.00 in0.0 mm
01:15 PM 26.6°F-3.0°C 16.5°F-8.6°C 65% 4.0 mph SW6.4 kmh SW -- 30.02 in1016.6 mb 0.00 in0.0 mm 0.00 in0.0 mm 0.00 in0.0 mm
01:20 PM 26.5°F-3.1°C 16.3°F-8.7°C 65% 3.0 mph SW4.8 kmh SW -- 30.02 in1016.6 mb 0.00 in0.0 mm 0.00 in0.0 mm 0.00 in0.0 mm
01:25 PM 25.9°F-3.4°C 15.8°F-9.0°C 65% 4.0 mph WSW6.4 kmh WSW -- 30.02 in1016.6 mb 0.00 in0.0 mm 0.00 in0.0 mm 0.00 in0.0 mm
01:30 PM 26.0°F-3.3°C 16.3°F-8.7°C 66% 2.0 mph WSW3.2 kmh WSW 13.0 mph20.9 kmh 30.02 in1016.6 mb 0.00 in0.0 mm 0.00 in0.0 mm 0.00 in0.0 mm
01:35 PM 26.3°F-3.2°C 16.2°F-8.8°C 65% 14.0 mph E22.5 kmh E -- 30.02 in1016.6 mb 0.00 in0.0 mm 0.00 in0.0 mm 0.00 in0.0 mm
01:40 PM 27.6°F-2.4°C 16.7°F-8.5°C 63% 7.0 mph E11.3 kmh E -- 30.02 in1016.6 mb 0.00 in0.0 mm 0.00 in0.0 mm 0.00 in0.0 mm
01:45 PM 27.8°F-2.3°C 16.9°F-8.4°C 63% 7.0 mph ENE11.3 kmh ENE -- 30.01 in1016.3 mb 0.00 in0.0 mm 0.00 in0.0 mm 0.00 in0.0 mm
01:50 PM 27.8°F-2.3°C 16.9°F-8.4°C 63% 7.0 mph E11.3 kmh E -- 30.01 in1016.3 mb 0.00 in0.0 mm 0.00 in0.0 mm 0.00 in0.0 mm
01:55 PM 27.9°F-2.3°C 16.9°F-8.4°C 63% Calm Calm 12.0 mph19.3 kmh 30.01 in1016.3 mb 0.00 in0.0 mm 0.00 in0.0 mm 0.00 in0.0 mm
02:00 PM 27.8°F-2.3°C 16.9°F-8.4°C 63% 5.0 mph NE8.0 kmh NE -- 30.01 in1016.3 mb 0.00 in0.0 mm 0.00 in0.0 mm 0.00 in0.0 mm
02:05 PM 27.6°F-2.4°C 17.1°F-8.3°C 64% Calm Calm -- 30.00 in1015.9 mb 0.00 in0.0 mm 0.00 in0.0 mm 0.00 in0.0 mm
02:10 PM 27.2°F-2.7°C 16.9°F-8.4°C 65% 2.0 mph SE3.2 kmh SE -- 30.00 in1015.9 mb 0.00 in0.0 mm 0.00 in0.0 mm 0.00 in0.0 mm
02:15 PM 26.6°F-3.0°C 16.9°F-8.4°C 66% 1.0 mph S1.6 kmh S -- 30.00 in1015.9 mb 0.00 in0.0 mm 0.00 in0.0 mm 0.00 in0.0 mm
02:20 PM 26.5°F-3.1°C 16.7°F-8.5°C 66% 3.0 mph SW4.8 kmh SW 7.0 mph11.3 kmh 30.00 in1015.9 mb 0.00 in0.0 mm 0.00 in0.0 mm 0.00 in0.0 mm
02:25 PM 26.5°F-3.1°C 16.7°F-8.5°C 66% 3.0 mph SW4.8 kmh SW -- 30.00 in1015.9 mb 0.00 in0.0 mm 0.00 in0.0 mm 0.00 in0.0 mm
02:30 PM 26.4°F-3.1°C 16.7°F-8.5°C 66% 4.0 mph SE6.4 kmh SE -- 30.00 in1015.9 mb 0.00 in0.0 mm 0.00 in0.0 mm 0.00 in0.0 mm
02:35 PM 26.5°F-3.1°C 16.7°F-8.5°C 66% 3.0 mph S4.8 kmh S -- 29.99 in1015.6 mb 0.00 in0.0 mm 0.00 in0.0 mm 0.00 in0.0 mm
02:40 PM 26.5°F-3.1°C 17.1°F-8.3°C 67% 3.0 mph S4.8 kmh S -- 29.99 in1015.6 mb 0.00 in0.0 mm 0.00 in0.0 mm 0.00 in0.0 mm
02:45 PM 26.5°F-3.1°C 16.7°F-8.5°C 66% Calm Calm 7.0 mph11.3 kmh 29.99 in1015.6 mb 0.00 in0.0 mm 0.00 in0.0 mm 0.00 in0.0 mm
02:50 PM 26.7°F-2.9°C 16.9°F-8.4°C 66% 4.0 mph E6.4 kmh E -- 29.99 in1015.6 mb 0.00 in0.0 mm 0.00 in0.0 mm 0.00 in0.0 mm
02:55 PM 26.9°F-2.8°C 16.7°F-8.5°C 65% 4.0 mph N6.4 kmh N -- 29.99 in1015.6 mb 0.00 in0.0 mm 0.00 in0.0 mm 0.00 in0.0 mm
03:00 PM 26.5°F-3.1°C 16.3°F-8.7°C 65% 1.0 mph WNW1.6 kmh WNW -- 29.99 in1015.6 mb 0.00 in0.0 mm 0.00 in0.0 mm 0.00 in0.0 mm
03:05 PM 26.4°F-3.1°C 16.3°F-8.7°C 65% 3.0 mph W4.8 kmh W -- 29.99 in1015.6 mb 0.00 in0.0 mm 0.00 in0.0 mm 0.00 in0.0 mm
03:10 PM 26.2°F-3.2°C 16.2°F-8.8°C 65% 2.0 mph SW3.2 kmh SW 10.0 mph16.1 kmh 29.99 in1015.6 mb 0.00 in0.0 mm 0.00 in0.0 mm 0.00 in0.0 mm
03:15 PM 26.0°F-3.3°C 16.3°F-8.7°C 66% 5.0 mph WSW8.0 kmh WSW -- 29.99 in1015.6 mb 0.00 in0.0 mm 0.00 in0.0 mm 0.00 in0.0 mm
03:20 PM 25.8°F-3.4°C 16.2°F-8.8°C 66% 6.0 mph WSW9.7 kmh WSW -- 29.99 in1015.6 mb 0.00 in0.0 mm 0.00 in0.0 mm 0.00 in0.0 mm
03:25 PM 25.7°F-3.5°C 16.0°F-8.9°C 66% 3.0 mph SSW4.8 kmh SSW -- 29.99 in1015.6 mb 0.00 in0.0 mm 0.00 in0.0 mm 0.00 in0.0 mm
03:30 PM 24.7°F-4.1°C 15.6°F-9.1°C 68% 3.0 mph SW4.8 kmh SW -- 29.98 in1015.2 mb 0.00 in0.0 mm 0.00 in0.0 mm 0.00 in0.0 mm
03:35 PM 24.2°F-4.3°C 16.0°F-8.9°C 70% 4.0 mph SW6.4 kmh SW 7.0 mph11.3 kmh 29.98 in1015.2 mb 0.00 in0.0 mm 0.00 in0.0 mm 0.00 in0.0 mm
03:40 PM 25.1°F-3.8°C 16.2°F-8.8°C 68% 3.0 mph SW4.8 kmh SW -- 29.98 in1015.2 mb 0.00 in0.0 mm 0.00 in0.0 mm 0.00 in0.0 mm
03:45 PM 25.6°F-3.6°C 15.8°F-9.0°C 66% 5.0 mph SW8.0 kmh SW -- 29.98 in1015.2 mb 0.00 in0.0 mm 0.00 in0.0 mm 0.00 in0.0 mm
03:50 PM 25.8°F-3.4°C 16.5°F-8.6°C 67% 1.0 mph SSW1.6 kmh SSW -- 29.98 in1015.2 mb 0.00 in0.0 mm 0.00 in0.0 mm 0.00 in0.0 mm
03:55 PM 23.8°F-4.6°C 14.4°F-9.8°C 67% 2.0 mph SW3.2 kmh SW -- 29.98 in1015.2 mb 0.00 in0.0 mm 0.00 in0.0 mm 0.00 in0.0 mm
04:00 PM 23.3°F-4.8°C 14.7°F-9.6°C 69% 6.0 mph WSW9.7 kmh WSW 6.0 mph9.7 kmh 29.97 in1014.9 mb 0.00 in0.0 mm 0.00 in0.0 mm 0.00 in0.0 mm
04:05 PM 23.2°F-4.9°C 14.9°F-9.5°C 70% 6.0 mph WSW9.7 kmh WSW -- 29.97 in1014.9 mb 0.00 in0.0 mm 0.00 in0.0 mm 0.00 in0.0 mm
04:10 PM 23.3°F-4.8°C 15.1°F-9.4°C 70% 5.0 mph SSW8.0 kmh SSW -- 29.97 in1014.9 mb 0.00 in0.0 mm 0.00 in0.0 mm 0.00 in0.0 mm
04:15 PM 24.3°F-4.3°C 15.6°F-9.1°C 69% 3.0 mph SW4.8 kmh SW -- 29.97 in1014.9 mb 0.00 in0.0 mm 0.00 in0.0 mm 0.00 in0.0 mm
04:20 PM 24.0°F-4.4°C 15.4°F-9.2°C 69% 2.0 mph SSW3.2 kmh SSW -- 29.97 in1014.9 mb 0.00 in0.0 mm 0.00 in0.0 mm 0.00 in0.0 mm
04:25 PM 24.1°F-4.4°C 15.8°F-9.0°C 70% 3.0 mph SW4.8 kmh SW 6.0 mph9.7 kmh 29.97 in1014.9 mb 0.00 in0.0 mm 0.00 in0.0 mm 0.00 in0.0 mm
04:30 PM 24.4°F-4.2°C 15.8°F-9.0°C 69% 4.0 mph SW6.4 kmh SW -- 29.97 in1014.9 mb 0.00 in0.0 mm 0.00 in0.0 mm 0.00 in0.0 mm
04:35 PM 24.3°F-4.3°C 15.6°F-9.1°C 69% 3.0 mph SW4.8 kmh SW -- 29.96 in1014.6 mb 0.00 in0.0 mm 0.00 in0.0 mm 0.00 in0.0 mm
04:40 PM 24.7°F-4.1°C 16.0°F-8.9°C 69% 7.0 mph SSW11.3 kmh SSW -- 29.96 in1014.6 mb 0.00 in0.0 mm 0.00 in0.0 mm 0.00 in0.0 mm
04:45 PM 24.4°F-4.2°C 15.4°F-9.2°C 68% 5.0 mph SW8.0 kmh SW -- 29.96 in1014.6 mb 0.00 in0.0 mm 0.00 in0.0 mm 0.00 in0.0 mm
04:50 PM 22.7°F-5.2°C 14.4°F-9.8°C 70% 2.0 mph SW3.2 kmh SW 8.0 mph12.9 kmh 29.96 in1014.6 mb 0.00 in0.0 mm 0.00 in0.0 mm 0.00 in0.0 mm
04:55 PM 22.0°F-5.6°C 14.5°F-9.7°C 73% 2.0 mph SW3.2 kmh SW -- 29.96 in1014.6 mb 0.00 in0.0 mm 0.00 in0.0 mm 0.00 in0.0 mm
05:00 PM 22.5°F-5.3°C 15.4°F-9.2°C 74% 4.0 mph SW6.4 kmh SW -- 29.96 in1014.6 mb 0.00 in0.0 mm 0.00 in0.0 mm 0.00 in0.0 mm
05:05 PM 23.6°F-4.7°C 15.8°F-9.0°C 72% 3.0 mph SW4.8 kmh SW -- 29.96 in1014.6 mb 0.00 in0.0 mm 0.00 in0.0 mm 0.00 in0.0 mm
05:10 PM 24.1°F-4.4°C 16.0°F-8.9°C 71% 2.0 mph SW3.2 kmh SW -- 29.96 in1014.6 mb 0.00 in0.0 mm 0.00 in0.0 mm 0.00 in0.0 mm
05:15 PM 24.0°F-4.4°C 15.8°F-9.0°C 70% 4.0 mph SSW6.4 kmh SSW 7.0 mph11.3 kmh 29.96 in1014.6 mb 0.00 in0.0 mm 0.00 in0.0 mm 0.00 in0.0 mm
05:20 PM 23.8°F-4.6°C 15.4°F-9.2°C 70% 3.0 mph SW4.8 kmh SW -- 29.96 in1014.6 mb 0.00 in0.0 mm 0.00 in0.0 mm 0.00 in0.0 mm
05:25 PM 24.7°F-4.1°C 16.0°F-8.9°C 69% 4.0 mph SW6.4 kmh SW -- 29.95 in1014.2 mb 0.00 in0.0 mm 0.00 in0.0 mm 0.00 in0.0 mm
05:30 PM 25.1°F-3.8°C 15.8°F-9.0°C 67% 6.0 mph SSW9.7 kmh SSW -- 29.95 in1014.2 mb 0.00 in0.0 mm 0.00 in0.0 mm 0.00 in0.0 mm
05:35 PM 25.1°F-3.8°C 15.8°F-9.0°C 67% 4.0 mph SW6.4 kmh SW -- 29.95 in1014.2 mb 0.00 in0.0 mm 0.00 in0.0 mm 0.00 in0.0 mm
05:40 PM 25.0°F-3.9°C 15.3°F-9.3°C 66% 4.0 mph SW6.4 kmh SW 9.0 mph14.5 kmh 29.95 in1014.2 mb 0.00 in0.0 mm 0.00 in0.0 mm 0.00 in0.0 mm
05:45 PM 25.3°F-3.7°C 15.6°F-9.1°C 66% 5.0 mph WSW8.0 kmh WSW -- 29.95 in1014.2 mb 0.00 in0.0 mm 0.00 in0.0 mm 0.00 in0.0 mm
05:50 PM 25.5°F-3.6°C 15.8°F-9.0°C 66% 6.0 mph WSW9.7 kmh WSW -- 29.95 in1014.2 mb 0.00 in0.0 mm 0.00 in0.0 mm 0.00 in0.0 mm
05:55 PM 25.7°F-3.5°C 15.6°F-9.1°C 65% 5.0 mph SW8.0 kmh SW -- 29.95 in1014.2 mb 0.00 in0.0 mm 0.00 in0.0 mm 0.00 in0.0 mm
06:00 PM 25.7°F-3.5°C 15.6°F-9.1°C 65% 4.0 mph SW6.4 kmh SW -- 29.95 in1014.2 mb 0.00 in0.0 mm 0.00 in0.0 mm 0.00 in0.0 mm
06:05 PM 25.7°F-3.5°C 15.3°F-9.3°C 64% 3.0 mph SSW4.8 kmh SSW 12.0 mph19.3 kmh 29.95 in1014.2 mb 0.00 in0.0 mm 0.00 in0.0 mm 0.00 in0.0 mm
06:10 PM 25.1°F-3.8°C 15.1°F-9.4°C 65% 4.0 mph SW6.4 kmh SW -- 29.95 in1014.2 mb 0.00 in0.0 mm 0.00 in0.0 mm 0.00 in0.0 mm
06:15 PM 24.7°F-4.1°C 14.9°F-9.5°C 66% 2.0 mph SSW3.2 kmh SSW -- 29.95 in1014.2 mb 0.00 in0.0 mm 0.00 in0.0 mm 0.00 in0.0 mm
06:20 PM 24.5°F-4.2°C 15.1°F-9.4°C 67% 6.0 mph WSW9.7 kmh WSW -- 29.95 in1014.2 mb 0.00 in0.0 mm 0.00 in0.0 mm 0.00 in0.0 mm
06:25 PM 25.3°F-3.7°C 15.6°F-9.1°C 66% 2.0 mph SW3.2 kmh SW -- 29.94 in1013.9 mb 0.00 in0.0 mm 0.00 in0.0 mm 0.00 in0.0 mm
06:30 PM 24.5°F-4.2°C 14.7°F-9.6°C 66% 3.0 mph SW4.8 kmh SW 9.0 mph14.5 kmh 29.94 in1013.9 mb 0.00 in0.0 mm 0.00 in0.0 mm 0.00 in0.0 mm
06:35 PM 23.0°F-5.0°C 14.4°F-9.8°C 69% 3.0 mph SW4.8 kmh SW -- 29.94 in1013.9 mb 0.00 in0.0 mm 0.00 in0.0 mm 0.00 in0.0 mm
06:40 PM 23.8°F-4.6°C 15.4°F-9.2°C 70% 3.0 mph SW4.8 kmh SW -- 29.94 in1013.9 mb 0.00 in0.0 mm 0.00 in0.0 mm 0.00 in0.0 mm
06:45 PM 24.1°F-4.4°C 15.4°F-9.2°C 69% 4.0 mph WSW6.4 kmh WSW -- 29.94 in1013.9 mb 0.00 in0.0 mm 0.00 in0.0 mm 0.00 in0.0 mm
06:50 PM 24.3°F-4.3°C 15.6°F-9.1°C 69% 4.0 mph WSW6.4 kmh WSW -- 29.94 in1013.9 mb 0.00 in0.0 mm 0.00 in0.0 mm 0.00 in0.0 mm
06:55 PM 24.9°F-3.9°C 16.0°F-8.9°C 68% 3.0 mph SW4.8 kmh SW 11.0 mph17.7 kmh 29.94 in1013.9 mb 0.00 in0.0 mm 0.00 in0.0 mm 0.00 in0.0 mm
07:00 PM 25.2°F-3.8°C 15.8°F-9.0°C 67% 7.0 mph WSW11.3 kmh WSW -- 29.94 in1013.9 mb 0.00 in0.0 mm 0.00 in0.0 mm 0.00 in0.0 mm
07:05 PM 24.7°F-4.1°C 15.3°F-9.3°C 67% 3.0 mph SW4.8 kmh SW -- 29.94 in1013.9 mb 0.00 in0.0 mm 0.00 in0.0 mm 0.00 in0.0 mm
07:10 PM 24.1°F-4.4°C 15.1°F-9.4°C 68% 4.0 mph WSW6.4 kmh WSW -- 29.94 in1013.9 mb 0.00 in0.0 mm 0.00 in0.0 mm 0.00 in0.0 mm
07:15 PM 24.8°F-4.0°C 15.8°F-9.0°C 68% 6.0 mph SW9.7 kmh SW -- 29.94 in1013.9 mb 0.00 in0.0 mm 0.00 in0.0 mm 0.00 in0.0 mm
07:20 PM 25.3°F-3.7°C 16.0°F-8.9°C 67% 3.0 mph SW4.8 kmh SW 9.0 mph14.5 kmh 29.93 in1013.5 mb 0.00 in0.0 mm 0.00 in0.0 mm 0.00 in0.0 mm
07:25 PM 25.8°F-3.4°C 15.4°F-9.2°C 64% 6.0 mph SW9.7 kmh SW -- 29.93 in1013.5 mb 0.00 in0.0 mm 0.00 in0.0 mm 0.00 in0.0 mm
07:30 PM 25.9°F-3.4°C 15.4°F-9.2°C 64% 2.0 mph SW3.2 kmh SW -- 29.93 in1013.5 mb 0.00 in0.0 mm 0.00 in0.0 mm 0.00 in0.0 mm
07:35 PM 24.8°F-4.0°C 15.1°F-9.4°C 66% 1.0 mph SW1.6 kmh SW -- 29.93 in1013.5 mb 0.00 in0.0 mm 0.00 in0.0 mm 0.00 in0.0 mm
07:40 PM 24.6°F-4.1°C 15.3°F-9.3°C 67% 3.0 mph S4.8 kmh S -- 29.93 in1013.5 mb 0.00 in0.0 mm 0.00 in0.0 mm 0.00 in0.0 mm
07:45 PM 25.3°F-3.7°C 15.6°F-9.1°C 66% 3.0 mph SSW4.8 kmh SSW 11.0 mph17.7 kmh 29.93 in1013.5 mb 0.00 in0.0 mm 0.00 in0.0 mm 0.00 in0.0 mm
07:50 PM 25.4°F-3.7°C 15.3°F-9.3°C 65% 3.0 mph SSW4.8 kmh SSW -- 29.93 in1013.5 mb 0.00 in0.0 mm 0.00 in0.0 mm 0.00 in0.0 mm
07:55 PM 25.4°F-3.7°C 15.3°F-9.3°C 65% 6.0 mph SW9.7 kmh SW -- 29.93 in1013.5 mb 0.00 in0.0 mm 0.00 in0.0 mm 0.00 in0.0 mm
08:00 PM 26.0°F-3.3°C 15.3°F-9.3°C 63% 5.0 mph SSW8.0 kmh SSW -- 29.93 in1013.5 mb 0.00 in0.0 mm 0.00 in0.0 mm 0.00 in0.0 mm
08:05 PM 26.0°F-3.3°C 15.6°F-9.1°C 64% 4.0 mph S6.4 kmh S -- 29.92 in1013.2 mb 0.00 in0.0 mm 0.00 in0.0 mm 0.00 in0.0 mm
08:10 PM 25.9°F-3.4°C 15.4°F-9.2°C 64% 4.0 mph SW6.4 kmh SW 9.0 mph14.5 kmh 29.93 in1013.5 mb 0.00 in0.0 mm 0.00 in0.0 mm 0.00 in0.0 mm
08:15 PM 25.8°F-3.4°C 15.4°F-9.2°C 64% 5.0 mph SW8.0 kmh SW -- 29.92 in1013.2 mb 0.00 in0.0 mm 0.00 in0.0 mm 0.00 in0.0 mm
08:20 PM 25.9°F-3.4°C 15.8°F-9.0°C 65% 5.0 mph SW8.0 kmh SW -- 29.92 in1013.2 mb 0.00 in0.0 mm 0.00 in0.0 mm 0.00 in0.0 mm
08:25 PM 26.0°F-3.3°C 16.3°F-8.7°C 66% 3.0 mph SW4.8 kmh SW -- 29.92 in1013.2 mb 0.00 in0.0 mm 0.00 in0.0 mm 0.00 in0.0 mm
08:30 PM 25.8°F-3.4°C 16.2°F-8.8°C 66% 3.0 mph SW4.8 kmh SW -- 29.92 in1013.2 mb 0.00 in0.0 mm 0.00 in0.0 mm 0.00 in0.0 mm
08:35 PM 25.8°F-3.4°C 16.5°F-8.6°C 67% 3.0 mph SW4.8 kmh SW 12.0 mph19.3 kmh 29.92 in1013.2 mb 0.00 in0.0 mm 0.00 in0.0 mm 0.00 in0.0 mm
08:40 PM 25.8°F-3.4°C 16.2°F-8.8°C 66% 4.0 mph WSW6.4 kmh WSW -- 29.92 in1013.2 mb 0.00 in0.0 mm 0.00 in0.0 mm 0.00 in0.0 mm
08:45 PM 25.8°F-3.4°C 16.2°F-8.8°C 66% 8.0 mph SW12.9 kmh SW -- 29.92 in1013.2 mb 0.00 in0.0 mm 0.00 in0.0 mm 0.00 in0.0 mm
08:50 PM 25.9°F-3.4°C 16.2°F-8.8°C 66% 4.0 mph SW6.4 kmh SW -- 29.92 in1013.2 mb 0.00 in0.0 mm 0.00 in0.0 mm 0.00 in0.0 mm
08:55 PM 26.1°F-3.3°C 16.3°F-8.7°C 66% 1.0 mph WSW1.6 kmh WSW -- 29.92 in1013.2 mb 0.00 in0.0 mm 0.00 in0.0 mm 0.00 in0.0 mm
09:00 PM 26.1°F-3.3°C 16.3°F-8.7°C 66% 4.0 mph WSW6.4 kmh WSW 8.0 mph12.9 kmh 29.91 in1012.9 mb 0.00 in0.0 mm 0.00 in0.0 mm 0.00 in0.0 mm
09:05 PM 25.9°F-3.4°C 16.5°F-8.6°C 67% 7.0 mph WSW11.3 kmh WSW -- 29.91 in1012.9 mb 0.00 in0.0 mm 0.00 in0.0 mm 0.00 in0.0 mm
09:10 PM 26.1°F-3.3°C 16.9°F-8.4°C 68% 4.0 mph WSW6.4 kmh WSW -- 29.91 in1012.9 mb 0.00 in0.0 mm 0.00 in0.0 mm 0.00 in0.0 mm
09:15 PM 26.3°F-3.2°C 17.4°F-8.1°C 69% 3.0 mph WSW4.8 kmh WSW -- 29.91 in1012.9 mb 0.00 in0.0 mm 0.00 in0.0 mm 0.00 in0.0 mm
09:20 PM 26.3°F-3.2°C 17.4°F-8.1°C 69% 1.0 mph ENE1.6 kmh ENE -- 29.91 in1012.9 mb 0.00 in0.0 mm 0.00 in0.0 mm 0.00 in0.0 mm
09:25 PM 26.6°F-3.0°C 17.4°F-8.1°C 68% 4.0 mph SSE6.4 kmh SSE 7.0 mph11.3 kmh 29.91 in1012.9 mb 0.00 in0.0 mm 0.00 in0.0 mm 0.00 in0.0 mm
09:30 PM 26.7°F-2.9°C 16.9°F-8.4°C 66% 1.0 mph ESE1.6 kmh ESE -- 29.91 in1012.9 mb 0.00 in0.0 mm 0.00 in0.0 mm 0.00 in0.0 mm
09:35 PM 26.6°F-3.0°C 16.9°F-8.4°C 66% 2.0 mph WSW3.2 kmh WSW -- 29.91 in1012.9 mb 0.00 in0.0 mm 0.00 in0.0 mm 0.00 in0.0 mm
09:40 PM 26.1°F-3.3°C 16.7°F-8.5°C 67% 4.0 mph SW6.4 kmh SW -- 29.91 in1012.9 mb 0.00 in0.0 mm 0.00 in0.0 mm 0.00 in0.0 mm
09:45 PM 26.1°F-3.3°C 16.7°F-8.5°C 67% 4.0 mph WSW6.4 kmh WSW -- 29.91 in1012.9 mb 0.00 in0.0 mm 0.00 in0.0 mm 0.00 in0.0 mm
09:50 PM 26.3°F-3.2°C 16.9°F-8.4°C 67% 3.0 mph WSW4.8 kmh WSW 6.0 mph9.7 kmh 29.91 in1012.9 mb 0.00 in0.0 mm 0.00 in0.0 mm 0.00 in0.0 mm
09:55 PM 25.8°F-3.4°C 16.5°F-8.6°C 67% 4.0 mph WSW6.4 kmh WSW -- 29.90 in1012.5 mb 0.00 in0.0 mm 0.00 in0.0 mm 0.00 in0.0 mm
10:00 PM 26.0°F-3.3°C 16.7°F-8.5°C 67% 5.0 mph WSW8.0 kmh WSW -- 29.90 in1012.5 mb 0.00 in0.0 mm 0.00 in0.0 mm 0.00 in0.0 mm
10:05 PM 26.2°F-3.2°C 16.9°F-8.4°C 67% 3.0 mph WSW4.8 kmh WSW -- 29.90 in1012.5 mb 0.00 in0.0 mm 0.00 in0.0 mm 0.00 in0.0 mm
10:10 PM 26.6°F-3.0°C 17.4°F-8.1°C 68% 5.0 mph WSW8.0 kmh WSW -- 29.90 in1012.5 mb 0.00 in0.0 mm 0.00 in0.0 mm 0.00 in0.0 mm
10:15 PM 26.5°F-3.1°C 17.2°F-8.2°C 68% 3.0 mph SW4.8 kmh SW 7.0 mph11.3 kmh 29.90 in1012.5 mb 0.00 in0.0 mm 0.00 in0.0 mm 0.00 in0.0 mm
10:20 PM 26.5°F-3.1°C 17.6°F-8.0°C 69% 2.0 mph SW3.2 kmh SW -- 29.91 in1012.9 mb 0.00 in0.0 mm 0.00 in0.0 mm 0.00 in0.0 mm
10:25 PM 26.9°F-2.8°C 18.1°F-7.7°C 69% 3.0 mph W4.8 kmh W -- 29.90 in1012.5 mb 0.00 in0.0 mm 0.00 in0.0 mm 0.00 in0.0 mm
10:30 PM 26.9°F-2.8°C 18.1°F-7.7°C 69% 4.0 mph SW6.4 kmh SW -- 29.90 in1012.5 mb 0.00 in0.0 mm 0.00 in0.0 mm 0.00 in0.0 mm
10:35 PM 26.6°F-3.0°C 18.1°F-7.7°C 70% 5.0 mph WSW8.0 kmh WSW -- 29.90 in1012.5 mb 0.00 in0.0 mm 0.00 in0.0 mm 0.00 in0.0 mm
10:40 PM 26.4°F-3.1°C 18.0°F-7.8°C 70% 5.0 mph WSW8.0 kmh WSW 6.0 mph9.7 kmh 29.90 in1012.5 mb 0.00 in0.0 mm 0.00 in0.0 mm 0.00 in0.0 mm
10:45 PM 26.4°F-3.1°C 18.3°F-7.6°C 71% Calm Calm -- 29.90 in1012.5 mb 0.00 in0.0 mm 0.00 in0.0 mm 0.00 in0.0 mm
10:50 PM 26.5°F-3.1°C 18.0°F-7.8°C 70% Calm Calm -- 29.90 in1012.5 mb 0.00 in0.0 mm 0.00 in0.0 mm 0.00 in0.0 mm
10:55 PM 25.6°F-3.6°C 17.4°F-8.1°C 71% Calm Calm -- 29.89 in1012.2 mb 0.00 in0.0 mm 0.00 in0.0 mm 0.00 in0.0 mm
11:00 PM 25.0°F-3.9°C 16.9°F-8.4°C 71% 2.0 mph WSW3.2 kmh WSW -- 29.90 in1012.5 mb 0.00 in0.0 mm 0.00 in0.0 mm 0.00 in0.0 mm
11:05 PM 24.9°F-3.9°C 17.6°F-8.0°C 73% 3.0 mph WSW4.8 kmh WSW 5.0 mph8.0 kmh 29.89 in1012.2 mb 0.00 in0.0 mm 0.00 in0.0 mm 0.00 in0.0 mm
11:10 PM 25.4°F-3.7°C 17.6°F-8.0°C 72% 4.0 mph SW6.4 kmh SW -- 29.89 in1012.2 mb 0.00 in0.0 mm 0.00 in0.0 mm 0.00 in0.0 mm
11:15 PM 25.7°F-3.5°C 18.0°F-7.8°C 72% 2.0 mph SSW3.2 kmh SSW -- 29.89 in1012.2 mb 0.00 in0.0 mm 0.00 in0.0 mm 0.00 in0.0 mm
11:20 PM 25.9°F-3.4°C 17.8°F-7.9°C 71% 5.0 mph WSW8.0 kmh WSW -- 29.89 in1012.2 mb 0.00 in0.0 mm 0.00 in0.0 mm 0.00 in0.0 mm
11:25 PM 26.4°F-3.1°C 18.0°F-7.8°C 70% 4.0 mph WSW6.4 kmh WSW -- 29.89 in1012.2 mb 0.00 in0.0 mm 0.00 in0.0 mm 0.00 in0.0 mm
11:30 PM 27.0°F-2.8°C 18.5°F-7.5°C 70% 3.0 mph SW4.8 kmh SW 7.0 mph11.3 kmh 29.89 in1012.2 mb 0.00 in0.0 mm 0.00 in0.0 mm 0.00 in0.0 mm
11:35 PM 26.3°F-3.2°C 17.8°F-7.9°C 70% 2.0 mph S3.2 kmh S -- 29.89 in1012.2 mb 0.00 in0.0 mm 0.00 in0.0 mm 0.00 in0.0 mm
11:40 PM 25.6°F-3.6°C 17.8°F-7.9°C 72% 4.0 mph SW6.4 kmh SW -- 29.89 in1012.2 mb 0.00 in0.0 mm 0.00 in0.0 mm 0.00 in0.0 mm
11:45 PM 26.0°F-3.3°C 18.3°F-7.6°C 72% 4.0 mph SW6.4 kmh SW -- 29.89 in1012.2 mb 0.00 in0.0 mm 0.00 in0.0 mm 0.00 in0.0 mm
11:50 PM 26.1°F-3.3°C 18.3°F-7.6°C 72% 1.0 mph SW1.6 kmh SW -- 29.89 in1012.2 mb 0.00 in0.0 mm 0.00 in0.0 mm 0.00 in0.0 mm
11:55 PM 26.4°F-3.1°C 18.3°F-7.6°C 71% 1.0 mph WSW1.6 kmh WSW 7.0 mph11.3 kmh 29.89 in1012.2 mb 0.00 in0.0 mm 0.00 in0.0 mm 0.00 in0.0 mm